createdAt,value
2023-12-09T00:01:44.138Z,10.30
2023-12-09T00:04:11.916Z,10.10
2023-12-09T00:06:50.418Z,10.40
2023-12-09T00:09:21.658Z,10.50
2023-12-09T00:11:49.283Z,10.20
2023-12-09T00:14:16.906Z,10.60
2023-12-09T00:16:44.520Z,10.40
2023-12-09T00:19:14.171Z,10.20
2023-12-09T00:21:41.796Z,10.30
2023-12-09T00:24:09.322Z,10.20
2023-12-09T00:26:37.766Z,10.60
2023-12-09T00:29:05.360Z,10.70
2023-12-09T00:31:32.977Z,10.80
2023-12-09T00:34:00.565Z,10.40
2023-12-09T00:36:28.178Z,10.40
2023-12-09T00:38:56.039Z,10.80
2023-12-09T00:41:23.725Z,10.60
2023-12-09T00:43:51.213Z,10.40
2023-12-09T00:46:18.871Z,10.90
2023-12-09T00:48:46.489Z,10.50
2023-12-09T00:51:14.904Z,10.90
2023-12-09T00:53:42.518Z,10.50
2023-12-09T00:56:10.406Z,10.90
2023-12-09T00:58:37.948Z,10.60
2023-12-09T01:01:06.254Z,10.90
2023-12-09T01:03:33.985Z,10.60
2023-12-09T01:06:01.637Z,11.00
2023-12-09T01:08:30.382Z,10.90
2023-12-09T01:10:57.889Z,11.00
2023-12-09T01:13:25.457Z,10.80
2023-12-09T01:15:53.027Z,10.60
2023-12-09T01:18:20.624Z,10.90
2023-12-09T01:20:48.183Z,10.90
2023-12-09T01:23:15.696Z,10.70
2023-12-09T01:25:43.361Z,10.80
2023-12-09T01:28:10.872Z,11.00
2023-12-09T01:30:38.911Z,11.10
2023-12-09T01:33:06.620Z,11.00
2023-12-09T01:35:34.196Z,10.70
2023-12-09T01:38:01.714Z,10.80
2023-12-09T01:40:29.284Z,10.60
2023-12-09T01:42:56.855Z,10.80
2023-12-09T01:45:24.582Z,10.60
2023-12-09T01:47:52.539Z,10.90
2023-12-09T01:50:20.432Z,10.90
2023-12-09T01:52:48.214Z,10.90
2023-12-09T01:55:16.549Z,11.00
2023-12-09T01:57:44.744Z,11.00
2023-12-09T02:00:12.784Z,11.00
2023-12-09T02:02:40.410Z,10.90
2023-12-09T02:05:08.957Z,10.50
2023-12-09T02:07:36.529Z,10.50
2023-12-09T02:10:05.062Z,10.80
2023-12-09T02:12:58.612Z,10.50
2023-12-09T02:15:47.252Z,10.90
2023-12-09T02:18:17.998Z,10.90
2023-12-09T02:20:45.857Z,10.50
2023-12-09T02:23:13.966Z,10.70
2023-12-09T02:25:41.999Z,10.50
2023-12-09T02:28:29.542Z,10.50
2023-12-09T02:31:07.614Z,10.50
2023-12-09T02:33:37.805Z,10.90
2023-12-09T02:36:09.068Z,10.80
2023-12-09T02:38:38.940Z,10.90
2023-12-09T02:41:10.995Z,10.90
2023-12-09T02:43:38.770Z,10.70
2023-12-09T02:46:06.297Z,10.70
2023-12-09T02:48:34.017Z,10.50
2023-12-09T02:51:01.821Z,10.50
2023-12-09T02:53:29.405Z,10.40
2023-12-09T02:55:57.131Z,10.80
2023-12-09T02:58:24.718Z,10.70
2023-12-09T03:00:52.221Z,10.50
2023-12-09T03:03:19.825Z,10.90
2023-12-09T03:05:47.356Z,10.90
2023-12-09T03:08:14.935Z,10.40
2023-12-09T03:10:42.525Z,10.80
2023-12-09T03:13:10.149Z,10.80
2023-12-09T03:15:37.780Z,10.50
2023-12-09T03:18:06.025Z,10.60
2023-12-09T03:20:33.666Z,10.40
2023-12-09T03:23:01.240Z,10.80
2023-12-09T03:25:28.806Z,10.50
2023-12-09T03:27:57.844Z,10.80
2023-12-09T03:30:26.829Z,10.90
2023-12-09T03:32:54.502Z,10.70
2023-12-09T03:35:22.264Z,10.40
2023-12-09T03:37:49.862Z,10.50
2023-12-09T03:40:17.419Z,10.80
2023-12-09T03:42:45.013Z,10.90
2023-12-09T03:45:12.690Z,10.40
2023-12-09T03:47:40.332Z,10.50
2023-12-09T03:50:08.337Z,10.50
2023-12-09T03:52:35.819Z,10.50
2023-12-09T03:55:05.189Z,10.70
2023-12-09T03:57:32.802Z,10.70
2023-12-09T04:00:00.510Z,10.70
2023-12-09T04:02:28.272Z,10.30
2023-12-09T04:04:56.001Z,10.70
2023-12-09T04:07:23.774Z,10.60
2023-12-09T04:09:51.492Z,10.30
2023-12-09T04:12:19.046Z,10.50
2023-12-09T04:14:46.679Z,10.60
2023-12-09T04:17:14.176Z,10.30
2023-12-09T04:19:42.010Z,10.60
2023-12-09T04:22:09.539Z,10.20
2023-12-09T04:24:37.100Z,10.20
2023-12-09T04:27:04.834Z,10.10
2023-12-09T04:29:32.376Z,10.10
2023-12-09T04:32:00.151Z,10.10
2023-12-09T04:34:27.865Z,10.40
2023-12-09T04:36:55.444Z,10.00
2023-12-09T04:39:23.163Z,10.40
2023-12-09T04:41:50.731Z,10.30
2023-12-09T04:44:18.351Z,10.40
2023-12-09T04:46:45.930Z,10.30
2023-12-09T04:49:13.599Z,10.10
2023-12-09T04:51:41.329Z,10.40
2023-12-09T04:54:08.971Z,10.00
2023-12-09T04:56:36.588Z,10.50
2023-12-09T04:59:04.243Z,10.30
2023-12-09T05:01:31.838Z,10.10
2023-12-09T05:03:59.513Z,10.40
2023-12-09T05:06:27.176Z,10.50
2023-12-09T05:08:57.318Z,10.20
2023-12-09T05:11:25.706Z,10.50
2023-12-09T05:13:53.185Z,10.10
2023-12-09T05:16:20.777Z,10.30
2023-12-09T05:18:48.531Z,10.30
2023-12-09T05:21:16.297Z,10.20
2023-12-09T05:23:43.802Z,10.10
2023-12-09T05:26:24.500Z,10.60
2023-12-09T05:28:52.741Z,10.20
2023-12-09T05:31:21.042Z,10.30
2023-12-09T05:33:49.072Z,10.20
2023-12-09T05:36:17.010Z,10.20
2023-12-09T05:38:45.074Z,10.20
2023-12-09T05:41:12.710Z,10.20
2023-12-09T05:43:41.033Z,10.60
2023-12-09T05:46:08.568Z,10.60
2023-12-09T05:48:36.251Z,10.20
2023-12-09T05:51:04.090Z,10.60
2023-12-09T05:53:32.367Z,10.60
2023-12-09T05:55:59.984Z,10.20
2023-12-09T05:58:27.791Z,10.50
2023-12-09T06:00:55.706Z,10.70
2023-12-09T06:03:23.953Z,10.20
2023-12-09T06:05:51.506Z,10.40
2023-12-09T06:08:19.125Z,10.30
2023-12-09T06:10:46.657Z,10.70
2023-12-09T06:13:14.282Z,10.30
2023-12-09T06:15:41.770Z,10.60
2023-12-09T06:18:09.622Z,10.40
2023-12-09T06:20:37.214Z,10.20
2023-12-09T06:23:04.831Z,10.30
2023-12-09T06:25:32.294Z,10.30
2023-12-09T06:28:01.309Z,10.20
2023-12-09T06:30:28.967Z,10.60
2023-12-09T06:32:56.685Z,10.50
2023-12-09T06:35:25.529Z,10.40
2023-12-09T06:37:56.055Z,10.60
2023-12-09T06:40:24.939Z,10.20
2023-12-09T06:42:52.502Z,10.20
2023-12-09T06:45:20.100Z,10.10
2023-12-09T06:47:47.796Z,10.10
2023-12-09T06:50:15.393Z,10.10
2023-12-09T06:52:42.980Z,10.50
2023-12-09T06:55:10.610Z,10.40
2023-12-09T06:57:38.301Z,10.10
2023-12-09T07:00:09.407Z,10.00
2023-12-09T07:02:48.485Z,10.40
2023-12-09T07:05:24.551Z,10.30
2023-12-09T07:07:52.315Z,10.00
2023-12-09T07:10:20.008Z,10.40
2023-12-09T07:12:47.592Z,10.00
2023-12-09T07:15:15.192Z,10.40
2023-12-09T07:17:42.902Z,10.40
2023-12-09T07:20:11.290Z,10.00
2023-12-09T07:22:38.890Z,10.10
2023-12-09T07:25:07.086Z,10.00
2023-12-09T07:27:34.708Z,10.40
2023-12-09T07:30:02.731Z,10.00
2023-12-09T07:32:30.522Z,10.40
2023-12-09T07:34:58.373Z,10.20
2023-12-09T07:37:26.195Z,10.00
2023-12-09T07:39:53.925Z,10.30
2023-12-09T07:42:21.598Z,10.00
2023-12-09T07:44:49.165Z,10.00
2023-12-09T07:47:16.756Z,10.00
2023-12-09T07:49:44.363Z,10.00
2023-12-09T07:52:11.973Z,10.30
2023-12-09T07:54:39.561Z,10.10
2023-12-09T07:57:07.133Z,10.40
2023-12-09T07:59:34.704Z,10.10
2023-12-09T08:02:02.255Z,10.40
2023-12-09T08:04:29.830Z,9.90
2023-12-09T08:06:57.402Z,10.40
2023-12-09T08:09:25.062Z,10.30
2023-12-09T08:11:53.877Z,9.90
2023-12-09T08:14:21.586Z,9.90
2023-12-09T08:16:49.152Z,10.30
2023-12-09T08:19:16.769Z,10.10
2023-12-09T08:21:44.326Z,10.30
2023-12-09T08:24:12.090Z,9.90
2023-12-09T08:26:40.297Z,10.10
2023-12-09T08:29:12.715Z,9.90
2023-12-09T08:31:40.302Z,9.90
2023-12-09T08:34:08.159Z,9.90
2023-12-09T08:36:35.816Z,10.30
2023-12-09T08:39:03.498Z,10.30
2023-12-09T08:41:31.263Z,9.90
2023-12-09T08:43:58.843Z,9.90
2023-12-09T08:46:26.376Z,9.90
2023-12-09T08:48:54.064Z,9.90
2023-12-09T08:51:21.688Z,9.80
2023-12-09T08:53:50.600Z,10.30
2023-12-09T08:56:18.250Z,10.00
2023-12-09T08:58:45.774Z,10.30
2023-12-09T09:01:13.609Z,10.20
2023-12-09T09:03:41.246Z,10.30
2023-12-09T09:06:09.157Z,9.80
2023-12-09T09:08:36.699Z,10.30
2023-12-09T09:11:05.071Z,10.10
2023-12-09T09:13:32.697Z,9.80
2023-12-09T09:16:00.311Z,10.10
2023-12-09T09:18:28.081Z,9.90
2023-12-09T09:20:55.670Z,10.20
2023-12-09T09:23:23.241Z,10.10
2023-12-09T09:25:50.787Z,9.70
2023-12-09T09:28:18.547Z,9.80
2023-12-09T09:30:46.155Z,9.60
2023-12-09T09:33:14.112Z,10.00
2023-12-09T09:35:41.702Z,10.00
2023-12-09T09:38:09.254Z,9.60
2023-12-09T09:40:36.989Z,9.50
2023-12-09T09:43:20.588Z,9.90
2023-12-09T09:45:49.503Z,9.70
2023-12-09T09:48:18.335Z,9.50
2023-12-09T09:50:47.086Z,9.40
2023-12-09T09:53:16.867Z,9.40
2023-12-09T09:55:44.848Z,9.30
2023-12-09T09:58:14.559Z,9.30
2023-12-09T10:00:42.551Z,9.60
2023-12-09T10:03:10.362Z,9.30
2023-12-09T10:05:38.376Z,9.30
2023-12-09T10:08:06.745Z,9.30
2023-12-09T10:10:35.776Z,9.40
2023-12-09T10:13:03.445Z,9.30
2023-12-09T10:15:31.200Z,9.60
2023-12-09T10:18:05.670Z,9.40
2023-12-09T10:20:36.283Z,9.30
2023-12-09T10:23:04.314Z,9.50
2023-12-09T10:25:32.036Z,9.20
2023-12-09T10:27:59.772Z,9.30
2023-12-09T10:30:28.002Z,9.30
2023-12-09T10:32:55.948Z,9.30
2023-12-09T10:35:23.553Z,9.30
2023-12-09T10:37:51.784Z,9.30
2023-12-09T10:40:22.286Z,9.40
2023-12-09T10:42:51.675Z,9.50
2023-12-09T10:45:19.429Z,9.50
2023-12-09T10:47:47.110Z,9.30
2023-12-09T10:50:14.947Z,9.50
2023-12-09T10:52:42.900Z,9.20
2023-12-09T10:55:10.684Z,9.30
2023-12-09T10:57:40.121Z,9.50
2023-12-09T11:00:11.993Z,9.50
2023-12-09T11:02:43.766Z,9.20
2023-12-09T11:05:12.046Z,9.50
2023-12-09T11:07:40.942Z,9.20
2023-12-09T11:10:10.074Z,9.40
2023-12-09T11:12:37.910Z,9.60
2023-12-09T11:15:32.344Z,9.50
2023-12-09T11:18:11.330Z,9.60
2023-12-09T11:20:41.272Z,9.60
2023-12-09T11:23:11.551Z,9.60
2023-12-09T11:25:43.915Z,9.70
2023-12-09T11:28:15.153Z,9.70
2023-12-09T11:30:45.431Z,9.70
2023-12-09T11:33:13.330Z,9.70
2023-12-09T11:35:44.086Z,9.60
2023-12-09T11:38:13.081Z,9.50
2023-12-09T11:40:41.326Z,9.30
2023-12-09T11:43:11.025Z,9.60
2023-12-09T11:45:38.904Z,9.40
2023-12-09T11:48:07.011Z,9.30
2023-12-09T11:50:35.243Z,9.60
2023-12-09T11:53:02.892Z,9.40
2023-12-09T11:55:30.621Z,9.50
2023-12-09T11:57:58.311Z,9.50
2023-12-09T12:00:26.315Z,9.70
2023-12-09T12:02:53.872Z,9.40
2023-12-09T12:05:21.674Z,9.60
2023-12-09T12:07:49.371Z,9.70
2023-12-09T12:10:17.161Z,9.70
2023-12-09T12:12:45.469Z,9.50
2023-12-09T12:15:14.232Z,9.50
2023-12-09T12:24:28.848Z,9.40
2023-12-09T12:26:57.064Z,9.50
2023-12-09T12:29:24.610Z,9.50
2023-12-09T12:31:52.307Z,9.70
2023-12-09T12:34:20.852Z,9.60
2023-12-09T12:36:49.823Z,9.70
2023-12-09T12:39:17.732Z,9.50
2023-12-09T12:41:46.241Z,9.30
2023-12-09T12:44:13.842Z,9.40
2023-12-09T12:46:41.603Z,9.50
2023-12-09T12:49:09.635Z,9.40
2023-12-09T12:51:37.239Z,9.40
2023-12-09T12:54:04.868Z,9.50
2023-12-09T12:56:32.598Z,9.60
2023-12-09T12:59:00.216Z,9.70
2023-12-09T13:01:27.991Z,9.50
2023-12-09T13:03:55.707Z,9.40
2023-12-09T13:06:23.483Z,9.40
2023-12-09T13:08:51.113Z,9.40
2023-12-09T13:11:18.906Z,9.50
2023-12-09T13:13:46.498Z,9.40
2023-12-09T13:16:14.145Z,9.40
2023-12-09T13:18:42.223Z,9.50
2023-12-09T13:21:10.436Z,9.40
2023-12-09T13:23:38.120Z,9.40
2023-12-09T13:26:05.918Z,9.70
2023-12-09T13:28:33.542Z,9.30
2023-12-09T13:31:01.376Z,9.40
2023-12-09T13:33:28.962Z,9.40
2023-12-09T13:35:56.779Z,9.40
2023-12-09T13:38:24.352Z,9.60
2023-12-09T13:40:51.960Z,9.50
2023-12-09T13:43:19.455Z,9.50
2023-12-09T13:45:47.260Z,9.50
2023-12-09T13:48:15.383Z,9.50
2023-12-09T13:50:43.223Z,9.60
2023-12-09T13:53:11.096Z,9.30
2023-12-09T13:55:38.732Z,9.50
2023-12-09T13:58:06.290Z,9.50
2023-12-09T14:00:34.094Z,9.40
2023-12-09T14:03:01.918Z,9.40
2023-12-09T14:05:29.753Z,9.60
2023-12-09T14:07:57.451Z,9.40
2023-12-09T14:10:25.030Z,9.70
2023-12-09T14:12:52.643Z,9.70
2023-12-09T14:15:20.389Z,9.70
2023-12-09T14:17:48.082Z,9.40
2023-12-09T14:20:17.093Z,9.60
2023-12-09T14:22:47.195Z,9.70
2023-12-09T14:25:15.026Z,9.80
2023-12-09T14:27:42.724Z,9.80
2023-12-09T14:30:12.747Z,9.50
2023-12-09T14:32:45.163Z,9.50
2023-12-09T14:35:15.600Z,9.60
2023-12-09T14:37:44.615Z,9.80
2023-12-09T14:40:12.631Z,9.60
2023-12-09T14:42:40.246Z,9.60
2023-12-09T14:45:10.547Z,9.60
2023-12-09T14:47:39.154Z,9.50
2023-12-09T14:50:08.055Z,9.60
2023-12-09T14:52:35.610Z,10.00
2023-12-09T14:55:04.584Z,9.60
2023-12-09T14:57:32.297Z,9.70
2023-12-09T14:59:59.927Z,9.60
2023-12-09T15:02:27.697Z,10.00
2023-12-09T15:04:55.496Z,9.90
2023-12-09T15:07:23.567Z,10.10
2023-12-09T15:09:51.209Z,10.10
2023-12-09T15:12:18.887Z,10.10
2023-12-09T15:14:46.472Z,9.80
2023-12-09T15:17:14.023Z,9.90
2023-12-09T15:19:41.639Z,10.20
2023-12-09T15:22:09.372Z,10.30
2023-12-09T15:24:36.992Z,10.20
2023-12-09T15:27:04.843Z,9.90
2023-12-09T15:29:32.387Z,10.30
2023-12-09T15:31:59.974Z,9.90
2023-12-09T15:34:31.766Z,10.40
2023-12-09T15:37:00.152Z,10.00
2023-12-09T15:39:27.835Z,10.00
2023-12-09T15:41:55.506Z,9.90
2023-12-09T15:44:23.047Z,10.10
2023-12-09T15:46:50.828Z,10.40
2023-12-09T15:49:18.342Z,10.50
2023-12-09T15:51:46.059Z,10.40
2023-12-09T15:54:15.091Z,10.30
2023-12-09T15:56:43.157Z,10.50
2023-12-09T15:59:10.841Z,10.60
2023-12-09T16:01:38.540Z,10.30
2023-12-09T16:04:06.269Z,10.30
2023-12-09T16:06:34.001Z,10.20
2023-12-09T16:09:01.627Z,10.20
2023-12-09T16:11:29.189Z,10.50
2023-12-09T16:13:56.707Z,10.30
2023-12-09T16:16:24.706Z,10.30
2023-12-09T16:18:53.104Z,10.20
2023-12-09T16:21:23.287Z,10.40
2023-12-09T16:23:51.006Z,10.10
2023-12-09T16:26:18.574Z,10.10
2023-12-09T16:28:46.760Z,10.40
2023-12-09T16:31:16.027Z,10.10
2023-12-09T16:33:44.074Z,10.60
2023-12-09T16:36:12.175Z,10.20
2023-12-09T16:38:40.014Z,10.60
2023-12-09T16:41:07.907Z,10.10
2023-12-09T16:43:35.469Z,10.30
2023-12-09T16:46:03.073Z,10.20
2023-12-09T16:48:31.316Z,10.50
2023-12-09T16:50:59.221Z,10.40
2023-12-09T16:53:26.883Z,10.40
2023-12-09T16:55:54.495Z,10.30
2023-12-09T16:58:22.229Z,9.90
2023-12-09T17:00:49.827Z,10.00
2023-12-09T17:03:17.662Z,9.90
2023-12-09T17:05:45.353Z,10.30
2023-12-09T17:08:12.978Z,9.90
2023-12-09T17:10:41.852Z,10.00
2023-12-09T17:13:09.545Z,10.30
2023-12-09T17:15:37.269Z,10.30
2023-12-09T17:18:05.381Z,10.40
2023-12-09T17:20:32.957Z,9.80
2023-12-09T17:23:00.552Z,10.30
2023-12-09T17:25:28.064Z,9.90
2023-12-09T17:27:55.670Z,10.30
2023-12-09T17:30:23.205Z,10.30
2023-12-09T17:32:50.990Z,9.90
2023-12-09T17:35:19.127Z,9.90
2023-12-09T17:37:46.706Z,10.30
2023-12-09T17:40:14.280Z,9.70
2023-12-09T17:42:41.859Z,10.20
2023-12-09T17:45:10.169Z,10.20
2023-12-09T17:47:38.046Z,10.00
2023-12-09T17:50:06.180Z,10.00
2023-12-09T17:52:36.565Z,10.00
2023-12-09T17:55:05.654Z,10.40
2023-12-09T17:57:33.369Z,10.20
2023-12-09T18:00:00.963Z,9.90
2023-12-09T18:02:28.793Z,9.80
2023-12-09T18:04:56.642Z,10.30
2023-12-09T18:07:24.311Z,10.30
2023-12-09T18:09:51.919Z,10.40
2023-12-09T18:12:19.488Z,10.40
2023-12-09T18:14:47.074Z,10.20
2023-12-09T18:17:14.690Z,10.10
2023-12-09T18:19:43.537Z,9.70
2023-12-09T18:22:11.202Z,9.80
2023-12-09T18:24:40.198Z,9.70
2023-12-09T18:27:07.930Z,10.30
2023-12-09T18:29:35.501Z,10.10
2023-12-09T18:32:03.245Z,9.60
2023-12-09T18:34:30.790Z,10.10
2023-12-09T18:36:58.854Z,10.30
2023-12-09T18:39:26.447Z,9.60
2023-12-09T18:41:54.889Z,10.10
2023-12-09T18:44:22.778Z,9.90
2023-12-09T18:46:50.368Z,9.60
2023-12-09T18:49:18.017Z,9.50
2023-12-09T18:51:45.636Z,9.60
2023-12-09T18:54:13.330Z,9.50
2023-12-09T18:56:40.966Z,10.00
2023-12-09T18:59:08.778Z,9.50
2023-12-09T19:01:36.568Z,9.40
2023-12-09T19:04:04.399Z,9.60
2023-12-09T19:06:39.120Z,9.50
2023-12-09T19:09:13.301Z,9.90
2023-12-09T19:11:40.890Z,9.80
2023-12-09T19:14:08.572Z,9.40
2023-12-09T19:16:36.656Z,9.80
2023-12-09T19:19:04.669Z,9.40
2023-12-09T19:21:32.330Z,9.90
2023-12-09T19:23:59.993Z,9.90
2023-12-09T19:26:27.551Z,9.40
2023-12-09T19:28:55.240Z,9.80
2023-12-09T19:31:23.023Z,10.00
2023-12-09T19:33:50.635Z,9.80
2023-12-09T19:36:18.627Z,9.50
2023-12-09T19:38:46.213Z,9.30
2023-12-09T19:41:13.863Z,9.40
2023-12-09T19:43:41.459Z,9.30
2023-12-09T19:46:08.999Z,9.40
2023-12-09T19:48:37.065Z,9.50
2023-12-09T19:51:05.154Z,9.40
2023-12-09T19:53:32.711Z,9.80
2023-12-09T19:56:00.563Z,9.90
2023-12-09T19:58:28.494Z,9.90
2023-12-09T20:00:56.025Z,9.80
2023-12-09T20:03:24.475Z,9.80
2023-12-09T20:05:52.046Z,9.60
2023-12-09T20:08:20.649Z,9.30
2023-12-09T20:10:48.517Z,9.60
2023-12-09T20:13:17.071Z,9.20
2023-12-09T20:15:45.308Z,9.10
2023-12-09T20:18:13.326Z,9.60
2023-12-09T20:20:41.276Z,9.40
2023-12-09T20:23:13.466Z,9.20
2023-12-09T20:25:41.061Z,9.50
2023-12-09T20:28:08.698Z,9.00
2023-12-09T20:30:40.939Z,9.00
2023-12-09T20:33:11.948Z,9.00
2023-12-09T20:35:39.631Z,9.00
2023-12-09T20:38:07.208Z,9.00
2023-12-09T20:40:37.544Z,9.00
2023-12-09T20:43:05.184Z,9.00
2023-12-09T20:45:33.183Z,9.30
2023-12-09T20:48:00.822Z,9.20
2023-12-09T20:50:28.979Z,9.30
2023-12-09T20:52:59.362Z,9.50
2023-12-09T20:55:27.919Z,9.50
2023-12-09T20:57:58.614Z,9.50
2023-12-09T21:00:27.743Z,9.50
2023-12-09T21:02:55.857Z,8.80
2023-12-09T21:05:23.950Z,8.80
2023-12-09T21:07:55.407Z,8.80
2023-12-09T21:10:26.303Z,9.30
2023-12-09T21:12:56.237Z,9.30
2023-12-09T21:15:24.418Z,9.30
2023-12-09T21:17:52.300Z,9.00
2023-12-09T21:20:19.918Z,9.30
2023-12-09T21:22:47.700Z,9.10
2023-12-09T21:25:18.376Z,8.80
2023-12-09T21:27:46.730Z,9.00
2023-12-09T21:30:15.162Z,9.10
2023-12-09T21:32:43.458Z,9.10
2023-12-09T21:35:11.239Z,9.00
2023-12-09T21:37:40.918Z,9.10
2023-12-09T21:40:09.866Z,9.00
2023-12-09T21:42:37.546Z,8.70
2023-12-09T21:45:05.718Z,9.10
2023-12-09T21:47:38.355Z,8.70
2023-12-09T21:50:09.905Z,9.20
2023-12-09T21:52:37.595Z,8.80
2023-12-09T21:55:11.092Z,8.60
2023-12-09T21:57:39.560Z,8.80
2023-12-09T22:00:08.396Z,8.80
2023-12-09T22:02:36.054Z,9.00
2023-12-09T22:05:03.955Z,8.90
2023-12-09T22:07:32.000Z,8.90
2023-12-09T22:09:59.606Z,8.70
2023-12-09T22:12:30.305Z,8.80
2023-12-09T22:14:58.095Z,8.80
2023-12-09T22:17:25.788Z,8.90
2023-12-09T22:19:54.123Z,9.40
2023-12-09T22:22:23.980Z,9.10
2023-12-09T22:24:51.598Z,9.40
2023-12-09T22:27:19.231Z,9.40
2023-12-09T22:29:46.819Z,8.90
2023-12-09T22:32:14.358Z,9.00
2023-12-09T22:34:42.114Z,9.00
2023-12-09T22:37:09.829Z,9.40
2023-12-09T22:39:37.597Z,9.50
2023-12-09T22:42:05.749Z,9.10
2023-12-09T22:44:33.350Z,9.50
2023-12-09T22:47:00.882Z,9.10
2023-12-09T22:49:28.670Z,9.20
2023-12-09T22:51:56.305Z,8.90
2023-12-09T22:54:24.325Z,9.40
2023-12-09T22:56:51.960Z,9.20
2023-12-09T22:59:19.514Z,9.30
2023-12-09T23:01:47.257Z,9.10
2023-12-09T23:04:15.003Z,8.80
2023-12-09T23:06:43.749Z,9.20
2023-12-09T23:09:11.339Z,9.10
2023-12-09T23:11:38.912Z,9.20
2023-12-09T23:14:06.946Z,8.80
2023-12-09T23:16:34.545Z,9.30
2023-12-09T23:19:02.163Z,8.80
2023-12-09T23:21:29.896Z,8.80
2023-12-09T23:23:57.444Z,8.70
2023-12-09T23:26:25.040Z,9.00
2023-12-09T23:28:52.589Z,8.90
2023-12-09T23:31:28.640Z,9.40
2023-12-09T23:34:03.401Z,8.80
2023-12-09T23:36:31.033Z,8.90
2023-12-09T23:38:58.615Z,9.10
2023-12-09T23:41:26.244Z,9.10
2023-12-09T23:43:53.782Z,8.80
2023-12-09T23:46:22.380Z,9.00
2023-12-09T23:48:50.321Z,8.90
2023-12-09T23:51:18.785Z,8.80
2023-12-09T23:53:46.411Z,9.30
2023-12-09T23:56:14.090Z,8.80
2023-12-09T23:58:43.231Z,8.90
